createdAt,value
2024-04-30T00:00:47.572Z,102442.90
2024-04-30T00:03:15.014Z,102442.73
2024-04-30T00:05:44.314Z,102442.77
2024-04-30T00:08:11.925Z,102443.83
2024-04-30T00:10:39.344Z,102442.45
2024-04-30T00:13:06.873Z,102446.80
2024-04-30T00:15:34.411Z,102443.51
2024-04-30T00:18:01.842Z,102444.73
2024-04-30T00:20:29.333Z,102443.36
2024-04-30T00:22:56.753Z,102455.38
2024-04-30T00:25:24.154Z,102449.64
2024-04-30T00:27:51.569Z,102451.22
2024-04-30T00:30:18.984Z,102455.05
2024-04-30T00:32:46.365Z,102449.30
2024-04-30T00:35:13.959Z,102454.02
2024-04-30T00:37:42.035Z,102458.02
2024-04-30T00:40:09.801Z,102455.23
2024-04-30T00:42:37.254Z,102455.75
2024-04-30T00:45:05.582Z,102450.55
2024-04-30T00:47:33.661Z,102447.60
2024-04-30T00:50:01.351Z,102453.86
2024-04-30T00:52:29.019Z,102453.17
2024-04-30T00:54:56.542Z,102449.19
2024-04-30T00:57:24.093Z,102446.92
2024-04-30T00:59:51.914Z,102450.73
2024-04-30T01:02:19.318Z,102450.23
2024-04-30T01:04:57.165Z,102452.83
2024-04-30T01:07:24.582Z,102451.45
2024-04-30T01:09:52.092Z,102455.80
2024-04-30T01:12:19.723Z,102460.66
2024-04-30T01:14:47.340Z,102458.60
2024-04-30T01:17:14.755Z,102458.25
2024-04-30T01:19:42.259Z,102457.91
2024-04-30T01:22:09.724Z,102457.20
2024-04-30T01:24:37.146Z,102457.03
2024-04-30T01:27:05.108Z,102457.72
2024-04-30T01:29:32.601Z,102459.29
2024-04-30T01:32:00.024Z,102457.39
2024-04-30T01:34:27.528Z,102455.66
2024-04-30T01:36:54.995Z,102457.21
2024-04-30T01:39:22.369Z,102461.89
2024-04-30T01:41:49.769Z,102461.38
2024-04-30T01:44:17.208Z,102461.38
2024-04-30T01:46:44.690Z,102468.67
2024-04-30T01:49:12.430Z,102465.55
2024-04-30T01:51:39.977Z,102463.64
2024-04-30T01:54:07.345Z,102460.16
2024-04-30T01:56:34.816Z,102461.03
2024-04-30T01:59:02.277Z,102460.69
2024-04-30T02:01:29.713Z,102462.79
2024-04-30T02:03:57.095Z,102467.12
2024-04-30T02:06:24.507Z,102460.51
2024-04-30T02:08:51.856Z,102465.90
2024-04-30T02:11:20.568Z,102464.85
2024-04-30T02:13:47.999Z,102466.42
2024-04-30T02:16:15.425Z,102467.29
2024-04-30T02:18:43.037Z,102468.86
2024-04-30T02:21:10.417Z,102471.48
2024-04-30T02:23:37.869Z,102469.39
2024-04-30T02:26:05.288Z,102472.69
2024-04-30T02:28:32.717Z,102479.29
2024-04-30T02:31:18.837Z,102476.35
2024-04-30T02:34:05.138Z,102481.04
2024-04-30T02:36:32.528Z,102473.22
2024-04-30T02:38:59.962Z,102480.52
2024-04-30T02:41:27.370Z,102482.60
2024-04-30T02:43:54.799Z,102482.26
2024-04-30T02:46:22.256Z,102484.17
2024-04-30T02:48:49.631Z,102490.42
2024-04-30T02:51:20.934Z,102487.64
2024-04-30T02:53:48.516Z,102500.84
2024-04-30T02:56:15.869Z,102503.97
2024-04-30T02:58:43.327Z,102502.05
2024-04-30T03:01:11.757Z,102506.22
2024-04-30T03:03:43.301Z,102508.48
2024-04-30T03:06:10.965Z,102510.39
2024-04-30T03:08:38.795Z,102511.96
2024-04-30T03:11:06.460Z,102517.16
2024-04-30T03:13:34.041Z,102517.16
2024-04-30T03:16:04.149Z,102522.38
2024-04-30T03:18:32.082Z,102524.63
2024-04-30T03:20:59.505Z,102524.28
2024-04-30T03:23:26.958Z,102522.89
2024-04-30T03:25:54.651Z,102526.72
2024-04-30T03:28:22.043Z,102525.67
2024-04-30T03:30:49.457Z,102527.41
2024-04-30T03:33:17.025Z,102532.11
2024-04-30T03:35:44.536Z,102537.48
2024-04-30T03:38:12.294Z,102536.42
2024-04-30T03:40:40.410Z,102537.46
2024-04-30T03:43:07.919Z,102533.46
2024-04-30T03:45:35.368Z,102528.42
2024-04-30T03:48:02.847Z,102533.81
2024-04-30T03:50:30.266Z,102537.27
2024-04-30T03:52:57.662Z,102540.57
2024-04-30T03:55:25.153Z,102542.31
2024-04-30T03:57:52.772Z,102544.73
2024-04-30T04:00:20.182Z,102548.72
2024-04-30T04:02:47.808Z,102548.88
2024-04-30T04:05:15.258Z,102551.69
2024-04-30T04:07:42.811Z,102556.02
2024-04-30T04:10:10.277Z,102552.36
2024-04-30T04:12:56.391Z,102556.36
2024-04-30T04:15:24.002Z,102548.70
2024-04-30T04:17:51.587Z,102549.04
2024-04-30T04:20:19.409Z,102553.04
2024-04-30T04:22:48.440Z,102551.81
2024-04-30T04:25:15.862Z,102553.36
2024-04-30T04:27:43.264Z,102557.17
2024-04-30T04:30:12.117Z,102561.34
2024-04-30T04:32:39.507Z,102564.63
2024-04-30T04:35:07.045Z,102561.35
2024-04-30T04:37:35.904Z,102560.84
2024-04-30T04:40:03.594Z,102565.52
2024-04-30T04:42:31.312Z,102567.59
2024-04-30T04:44:58.815Z,102570.52
2024-04-30T04:47:26.240Z,102570.84
2024-04-30T04:49:53.873Z,102568.90
2024-04-30T04:52:21.473Z,102565.41
2024-04-30T04:54:48.884Z,102574.63
2024-04-30T04:57:16.267Z,102569.02
2024-04-30T04:59:43.820Z,102569.48
2024-04-30T05:02:11.416Z,102575.02
2024-04-30T05:04:38.924Z,102577.61
2024-04-30T05:07:06.571Z,102582.98
2024-04-30T05:09:34.041Z,102589.02
2024-04-30T05:12:01.517Z,102589.48
2024-04-30T05:14:29.257Z,102591.17
2024-04-30T05:16:56.899Z,102598.77
2024-04-30T05:19:24.385Z,102592.41
2024-04-30T05:21:52.086Z,102596.89
2024-04-30T05:24:19.574Z,102602.55
2024-04-30T05:26:47.594Z,102598.14
2024-04-30T05:29:15.750Z,102600.16
2024-04-30T05:31:43.494Z,102601.81
2024-04-30T05:34:10.991Z,102606.92
2024-04-30T05:36:38.441Z,102605.08
2024-04-30T05:39:06.028Z,102608.11
2024-04-30T05:41:33.450Z,102608.70
2024-04-30T05:44:01.020Z,102615.39
2024-04-30T05:46:28.759Z,102609.00
2024-04-30T05:48:57.130Z,102606.21
2024-04-30T05:51:24.606Z,102601.75
2024-04-30T05:53:55.106Z,102599.69
2024-04-30T05:56:23.817Z,102597.63
2024-04-30T05:58:51.303Z,102596.81
2024-04-30T06:01:22.112Z,102591.31
2024-04-30T06:03:55.957Z,102598.89
2024-04-30T06:06:28.993Z,102599.10
2024-04-30T06:08:57.830Z,102596.35
2024-04-30T06:11:25.333Z,102600.23
2024-04-30T06:13:52.915Z,102598.10
2024-04-30T06:16:20.374Z,102594.79
2024-04-30T06:18:48.089Z,102595.09
2024-04-30T06:21:30.604Z,102597.67
2024-04-30T06:24:00.673Z,102593.00
2024-04-30T06:26:29.439Z,102592.27
2024-04-30T06:28:58.437Z,102593.91
2024-04-30T06:31:28.793Z,102589.89
2024-04-30T06:33:58.339Z,102595.31
2024-04-30T06:36:31.567Z,102600.92
2024-04-30T06:39:04.463Z,102600.02
2024-04-30T06:41:33.266Z,102603.04
2024-04-30T06:44:01.554Z,102609.02
2024-04-30T06:46:40.715Z,102616.79
2024-04-30T06:49:12.265Z,102616.55
2024-04-30T06:51:44.816Z,102620.76
2024-04-30T06:54:13.222Z,102620.63
2024-04-30T06:56:40.702Z,102614.71
2024-04-30T06:59:08.422Z,102606.64
2024-04-30T07:01:38.358Z,102605.17
2024-04-30T07:04:07.423Z,102615.80
2024-04-30T07:06:38.901Z,102612.64
2024-04-30T07:09:08.608Z,102618.06
2024-04-30T07:11:37.999Z,102612.27
2024-04-30T07:14:07.535Z,102608.23
2024-04-30T07:16:46.161Z,102613.14
2024-04-30T07:19:22.054Z,102612.10
2024-04-30T07:21:49.532Z,102620.05
2024-04-30T07:24:17.097Z,102613.55
2024-04-30T07:26:44.735Z,102618.02
2024-04-30T07:29:12.159Z,102618.84
2024-04-30T07:31:43.007Z,102615.12
2024-04-30T07:34:11.463Z,102609.05
2024-04-30T07:36:42.183Z,102608.00
2024-04-30T07:39:12.392Z,102607.02
2024-04-30T07:41:48.904Z,102602.23
2024-04-30T07:44:19.292Z,102603.47
2024-04-30T07:46:49.461Z,102615.08
2024-04-30T07:49:20.578Z,102616.41
2024-04-30T07:51:48.096Z,102624.35
2024-04-30T07:54:15.868Z,102616.47
2024-04-30T07:56:45.999Z,102619.27
2024-04-30T07:59:13.796Z,102608.30
2024-04-30T08:01:41.687Z,102607.13
2024-04-30T08:04:09.234Z,102608.28
2024-04-30T08:06:36.715Z,102604.84
2024-04-30T08:09:04.607Z,102605.77
2024-04-30T08:11:34.103Z,102598.25
2024-04-30T08:14:01.663Z,102602.45
2024-04-30T08:16:29.287Z,102602.59
2024-04-30T08:18:59.437Z,102602.92
2024-04-30T08:21:28.019Z,102607.88
2024-04-30T08:24:02.031Z,102612.94
2024-04-30T08:26:33.412Z,102612.33
2024-04-30T08:29:06.468Z,102606.87
2024-04-30T08:31:34.565Z,102608.62
2024-04-30T08:34:02.121Z,102610.33
2024-04-30T08:36:32.115Z,102608.48
2024-04-30T08:39:00.262Z,102608.70
2024-04-30T08:41:28.006Z,102612.13
2024-04-30T08:43:56.751Z,102599.62
2024-04-30T08:46:28.420Z,102604.20
2024-04-30T08:48:57.365Z,102596.80
2024-04-30T08:51:33.821Z,102600.27
2024-04-30T08:54:04.344Z,102600.83
2024-04-30T08:56:33.359Z,102593.19
2024-04-30T08:59:01.596Z,102596.27
2024-04-30T09:01:32.483Z,102589.81
2024-04-30T09:06:34.390Z,102587.61
2024-04-30T09:09:05.035Z,102586.73
2024-04-30T09:11:32.798Z,102576.92
2024-04-30T09:14:00.362Z,102575.71
2024-04-30T09:16:28.081Z,102572.27
2024-04-30T09:18:55.522Z,102575.60
2024-04-30T09:21:30.554Z,102579.77
2024-04-30T09:24:07.897Z,102569.79
2024-04-30T09:26:35.547Z,102566.28
2024-04-30T09:29:03.191Z,102566.19
2024-04-30T09:31:40.153Z,102569.46
2024-04-30T09:34:09.172Z,102560.98
2024-04-30T09:36:37.910Z,102567.75
2024-04-30T09:39:09.347Z,102566.00
2024-04-30T09:41:40.327Z,102560.32
2024-04-30T09:44:10.552Z,102554.48
2024-04-30T09:46:38.320Z,102554.02
2024-04-30T09:49:08.547Z,102558.73
2024-04-30T09:51:37.205Z,102556.84
2024-04-30T09:54:04.987Z,102551.64
2024-04-30T09:56:32.666Z,102551.44
2024-04-30T09:59:00.220Z,102553.41
2024-04-30T10:01:28.583Z,102551.06
2024-04-30T10:03:56.310Z,102555.07
2024-04-30T10:06:23.841Z,102549.14
2024-04-30T10:08:51.283Z,102550.90
2024-04-30T10:11:19.308Z,102548.35
2024-04-30T10:13:53.694Z,102548.55
2024-04-30T10:16:24.127Z,102550.52
2024-04-30T10:19:04.559Z,102554.48
2024-04-30T10:21:35.987Z,102541.17
2024-04-30T10:24:22.369Z,102539.55
2024-04-30T10:26:50.753Z,102542.08
2024-04-30T10:29:20.967Z,102535.39
2024-04-30T10:31:49.541Z,102537.40
2024-04-30T10:34:20.488Z,102535.56
2024-04-30T10:36:49.070Z,102535.88
2024-04-30T10:39:25.548Z,102533.70
2024-04-30T10:41:53.083Z,102531.34
2024-04-30T10:44:20.455Z,102536.86
2024-04-30T10:46:51.084Z,102532.27
2024-04-30T10:49:21.190Z,102529.64
2024-04-30T10:51:48.925Z,102529.75
2024-04-30T10:54:16.463Z,102529.52
2024-04-30T10:56:45.884Z,102527.23
2024-04-30T10:59:13.827Z,102523.73
2024-04-30T11:01:41.417Z,102519.46
2024-04-30T11:04:10.262Z,102507.59
2024-04-30T11:06:48.289Z,102506.84
2024-04-30T11:09:16.630Z,102496.38
2024-04-30T11:11:48.892Z,102490.80
2024-04-30T11:14:17.495Z,102495.66
2024-04-30T11:16:47.192Z,102499.08
2024-04-30T11:19:15.270Z,102493.45
2024-04-30T11:21:43.155Z,102493.77
2024-04-30T11:24:10.865Z,102494.86
2024-04-30T11:26:38.380Z,102496.59
2024-04-30T11:29:22.590Z,102489.23
2024-04-30T11:31:53.479Z,102484.76
2024-04-30T11:34:23.859Z,102483.41
2024-04-30T11:36:52.671Z,102473.09
2024-04-30T11:39:20.395Z,102473.79
2024-04-30T11:41:57.279Z,102471.35
2024-04-30T11:44:34.608Z,102465.09
2024-04-30T11:47:05.938Z,102457.14
2024-04-30T11:49:34.311Z,102448.89
2024-04-30T11:52:02.666Z,102441.92
2024-04-30T11:54:30.409Z,102444.42
2024-04-30T11:56:58.074Z,102444.80
2024-04-30T11:59:25.626Z,102439.56
2024-04-30T12:01:53.208Z,102441.14
2024-04-30T12:04:24.692Z,102447.11
2024-04-30T12:06:52.291Z,102441.38
2024-04-30T12:09:21.769Z,102433.91
2024-04-30T12:11:49.386Z,102435.64
2024-04-30T12:14:16.879Z,102429.47
2024-04-30T12:16:47.537Z,102422.88
2024-04-30T12:19:16.125Z,102422.80
2024-04-30T12:21:44.371Z,102421.15
2024-04-30T12:24:12.308Z,102421.10
2024-04-30T12:26:42.095Z,102421.64
2024-04-30T12:29:09.746Z,102417.75
2024-04-30T12:31:41.459Z,102414.11
2024-04-30T12:34:09.095Z,102409.27
2024-04-30T12:36:41.358Z,102407.38
2024-04-30T12:39:09.674Z,102407.36
2024-04-30T12:41:38.664Z,102406.31
2024-04-30T12:44:06.971Z,102394.45
2024-04-30T12:46:34.636Z,102396.25
2024-04-30T12:49:02.287Z,102391.23
2024-04-30T12:51:29.806Z,102391.50
2024-04-30T12:53:57.716Z,102385.31
2024-04-30T12:56:25.126Z,102386.98
2024-04-30T12:58:52.897Z,102390.98
2024-04-30T13:01:23.288Z,102379.02
2024-04-30T13:03:56.140Z,102381.25
2024-04-30T13:06:25.229Z,102376.60
2024-04-30T13:08:53.226Z,102378.33
2024-04-30T13:11:20.713Z,102377.95
2024-04-30T13:13:48.406Z,102371.57
2024-04-30T13:16:18.682Z,102365.71
2024-04-30T13:18:46.462Z,102362.04
2024-04-30T13:21:19.899Z,102360.05
2024-04-30T13:23:47.647Z,102354.27
2024-04-30T13:26:16.123Z,102353.33
2024-04-30T13:28:43.724Z,102351.72
2024-04-30T13:31:12.632Z,102351.19
2024-04-30T13:33:43.391Z,102351.35
2024-04-30T13:36:14.469Z,102355.05
2024-04-30T13:38:42.199Z,102351.83
2024-04-30T13:41:09.923Z,102346.40
2024-04-30T13:43:38.234Z,102337.73
2024-04-30T13:46:05.899Z,102345.77
2024-04-30T13:48:33.514Z,102341.15
2024-04-30T13:51:01.034Z,102339.06
2024-04-30T13:53:28.680Z,102335.98
2024-04-30T13:55:59.359Z,102330.95
2024-04-30T13:58:26.894Z,102327.38
2024-04-30T14:00:54.444Z,102330.16
2024-04-30T14:03:21.908Z,102328.77
2024-04-30T14:05:52.164Z,102327.50
2024-04-30T14:08:19.724Z,102316.16
2024-04-30T14:10:47.263Z,102316.59
2024-04-30T14:13:20.570Z,102311.90
2024-04-30T14:15:49.695Z,102312.41
2024-04-30T14:18:20.238Z,102308.23
2024-04-30T14:20:47.756Z,102304.83
2024-04-30T14:23:17.655Z,102305.17
2024-04-30T14:25:45.346Z,102301.37
2024-04-30T14:28:13.241Z,102301.73
2024-04-30T14:30:40.874Z,102298.19
2024-04-30T14:33:11.231Z,102298.70
2024-04-30T14:35:57.666Z,102294.70
2024-04-30T14:38:27.929Z,102289.84
2024-04-30T14:40:55.837Z,102294.29
2024-04-30T14:43:23.381Z,102292.46
2024-04-30T14:45:50.814Z,102286.97
2024-04-30T14:48:18.401Z,102284.15
2024-04-30T14:50:46.167Z,102283.32
2024-04-30T14:53:13.597Z,102278.58
2024-04-30T14:55:41.176Z,102275.24
2024-04-30T14:58:09.011Z,102280.66
2024-04-30T15:00:37.129Z,102273.20
2024-04-30T15:03:08.102Z,102274.63
2024-04-30T15:05:35.619Z,102273.48
2024-04-30T15:08:03.948Z,102269.30
2024-04-30T15:10:31.964Z,102273.38
2024-04-30T15:12:59.506Z,102274.23
2024-04-30T15:15:27.245Z,102274.83
2024-04-30T15:17:54.764Z,102274.05
2024-04-30T15:20:22.173Z,102272.14
2024-04-30T15:22:49.756Z,102271.55
2024-04-30T15:25:17.242Z,102274.42
2024-04-30T15:27:44.832Z,102268.77
2024-04-30T15:30:12.572Z,102265.32
2024-04-30T15:32:40.404Z,102266.08
2024-04-30T15:35:08.197Z,102264.37
2024-04-30T15:37:35.689Z,102261.30
2024-04-30T15:40:03.484Z,102257.14
2024-04-30T15:42:30.869Z,102251.20
2024-04-30T15:44:58.230Z,102256.02
2024-04-30T15:47:25.801Z,102251.44
2024-04-30T15:49:53.640Z,102252.26
2024-04-30T15:52:21.196Z,102252.59
2024-04-30T15:54:48.903Z,102253.34
2024-04-30T15:57:16.309Z,102255.45
2024-04-30T15:59:43.879Z,102253.16
2024-04-30T16:02:11.311Z,102251.27
2024-04-30T16:04:38.782Z,102254.59
2024-04-30T16:07:06.191Z,102253.16
2024-04-30T16:09:37.973Z,102256.73
2024-04-30T16:12:05.490Z,102257.06
2024-04-30T16:14:32.943Z,102252.63
2024-04-30T16:17:00.487Z,102254.59
2024-04-30T16:19:28.119Z,102253.60
2024-04-30T16:21:55.682Z,102254.64
2024-04-30T16:24:23.333Z,102253.33
2024-04-30T16:26:52.104Z,102248.85
2024-04-30T16:29:19.506Z,102252.94
2024-04-30T16:31:47.039Z,102255.33
2024-04-30T16:34:14.592Z,102251.78
2024-04-30T16:36:42.072Z,102251.83
2024-04-30T16:39:09.543Z,102250.02
2024-04-30T16:41:36.903Z,102246.93
2024-04-30T16:44:04.590Z,102253.48
2024-04-30T16:46:32.507Z,102251.96
2024-04-30T16:49:00.046Z,102255.66
2024-04-30T16:51:27.590Z,102255.50
2024-04-30T16:53:55.072Z,102252.67
2024-04-30T16:56:23.285Z,102249.96
2024-04-30T16:58:51.161Z,102250.17
2024-04-30T17:01:18.905Z,102253.30
2024-04-30T17:03:46.522Z,102248.35
2024-04-30T17:06:14.037Z,102246.48
2024-04-30T17:08:42.041Z,102244.73
2024-04-30T17:11:12.275Z,102246.43
2024-04-30T17:13:43.435Z,102249.10
2024-04-30T17:16:20.144Z,102248.12
2024-04-30T17:18:47.845Z,102244.83
2024-04-30T17:21:18.988Z,102249.73
2024-04-30T17:23:46.431Z,102252.96
2024-04-30T17:26:15.575Z,102253.88
2024-04-30T17:28:43.081Z,102252.30
2024-04-30T17:31:15.109Z,102256.86
2024-04-30T17:33:42.889Z,102257.91
2024-04-30T17:36:10.287Z,102262.13
2024-04-30T17:38:37.702Z,102260.54
2024-04-30T17:41:05.130Z,102266.98
2024-04-30T17:43:32.552Z,102267.64
2024-04-30T17:45:59.994Z,102270.21
2024-04-30T17:48:27.603Z,102272.79
2024-04-30T17:50:55.037Z,102277.35
2024-04-30T17:53:22.569Z,102278.73
2024-04-30T17:55:50.135Z,102279.36
2024-04-30T17:58:20.154Z,102287.17
2024-04-30T18:00:47.920Z,102291.48
2024-04-30T18:03:15.528Z,102291.41
2024-04-30T18:05:43.094Z,102295.36
2024-04-30T18:08:10.716Z,102297.55
2024-04-30T18:10:45.745Z,102298.48
2024-04-30T18:13:19.767Z,102302.94
2024-04-30T18:15:47.283Z,102304.20
2024-04-30T18:18:14.692Z,102301.92
2024-04-30T18:20:42.658Z,102299.63
2024-04-30T18:23:10.083Z,102300.89
2024-04-30T18:25:37.558Z,102302.36
2024-04-30T18:28:05.135Z,102302.09
2024-04-30T18:30:32.704Z,102300.40
2024-04-30T18:33:00.264Z,102299.58
2024-04-30T18:35:30.376Z,102301.98
2024-04-30T18:37:57.871Z,102299.33
2024-04-30T18:40:25.376Z,102304.27
2024-04-30T18:42:53.120Z,102299.57
2024-04-30T18:45:23.503Z,102302.40
2024-04-30T18:47:51.058Z,102304.92
2024-04-30T18:50:19.859Z,102304.16
2024-04-30T18:52:47.374Z,102301.29
2024-04-30T18:55:15.006Z,102296.58
2024-04-30T18:57:42.429Z,102299.84
2024-04-30T19:00:11.616Z,102294.44
2024-04-30T19:02:39.084Z,102295.55
2024-04-30T19:05:07.480Z,102294.85
2024-04-30T19:07:38.547Z,102291.73
2024-04-30T19:10:06.695Z,102296.70
2024-04-30T19:12:34.184Z,102293.61
2024-04-30T19:15:01.655Z,102295.91
2024-04-30T19:17:29.161Z,102293.84
2024-04-30T19:19:57.454Z,102288.67
2024-04-30T19:22:24.963Z,102282.45
2024-04-30T19:24:52.473Z,102280.21
2024-04-30T19:27:21.956Z,102280.07
2024-04-30T19:29:49.586Z,102278.00
2024-04-30T19:32:21.157Z,102279.08
2024-04-30T19:34:48.635Z,102277.85
2024-04-30T19:37:16.164Z,102270.49
2024-04-30T19:39:44.249Z,102272.78
2024-04-30T19:42:11.900Z,102273.67
2024-04-30T19:44:39.464Z,102270.59
2024-04-30T19:47:07.203Z,102272.74
2024-04-30T19:49:34.785Z,102272.77
2024-04-30T19:52:02.378Z,102272.26
2024-04-30T19:54:29.817Z,102264.09
2024-04-30T19:56:57.202Z,102270.63
2024-04-30T19:59:24.826Z,102263.41
2024-04-30T20:01:52.212Z,102266.64
2024-04-30T20:04:19.684Z,102267.84
2024-04-30T20:06:47.668Z,102268.49
2024-04-30T20:09:16.085Z,102269.83
2024-04-30T20:11:43.684Z,102270.83
2024-04-30T20:14:11.357Z,102265.50
2024-04-30T20:16:43.260Z,102268.59
2024-04-30T20:19:10.976Z,102266.23
2024-04-30T20:21:38.473Z,102266.15
2024-04-30T20:24:08.324Z,102266.77
2024-04-30T20:26:35.824Z,102265.48
2024-04-30T20:29:08.025Z,102258.58
2024-04-30T20:31:36.537Z,102257.09
2024-04-30T20:34:04.130Z,102253.36
2024-04-30T20:36:31.951Z,102252.75
2024-04-30T20:38:59.482Z,102249.70
2024-04-30T20:41:26.966Z,102252.00
2024-04-30T20:43:54.535Z,102248.89
2024-04-30T20:46:21.972Z,102248.80
2024-04-30T20:48:49.929Z,102246.08
2024-04-30T20:51:17.606Z,102243.00
2024-04-30T20:53:46.483Z,102242.55
2024-04-30T20:56:13.988Z,102241.56
2024-04-30T20:58:41.478Z,102242.84
2024-04-30T21:01:16.725Z,102244.27
2024-04-30T21:03:44.770Z,102244.17
2024-04-30T21:06:12.312Z,102248.39
2024-04-30T21:08:39.680Z,102252.28
2024-04-30T21:11:16.616Z,102252.17
2024-04-30T21:13:44.020Z,102250.54
2024-04-30T21:16:11.487Z,102253.38
2024-04-30T21:18:39.128Z,102250.97
2024-04-30T21:21:06.689Z,102251.22
2024-04-30T21:23:34.084Z,102254.43
2024-04-30T21:26:01.538Z,102260.96
2024-04-30T21:28:30.227Z,102258.94
2024-04-30T21:30:57.690Z,102258.83
2024-04-30T21:33:25.187Z,102253.46
2024-04-30T21:35:53.269Z,102254.85
2024-04-30T21:38:20.683Z,102254.35
2024-04-30T21:40:48.155Z,102251.26
2024-04-30T21:43:15.548Z,102252.51
2024-04-30T21:45:42.983Z,102252.70
2024-04-30T21:48:10.463Z,102253.77
2024-04-30T21:50:37.875Z,102248.38
2024-04-30T21:53:05.352Z,102251.05
2024-04-30T21:55:32.833Z,102251.11
2024-04-30T21:58:00.302Z,102252.39
2024-04-30T22:00:28.077Z,102251.02
2024-04-30T22:03:02.562Z,102250.17
2024-04-30T22:05:31.160Z,102256.48
2024-04-30T22:07:58.752Z,102251.65
2024-04-30T22:10:26.140Z,102250.30
2024-04-30T22:12:53.591Z,102253.66
2024-04-30T22:15:21.011Z,102258.77
2024-04-30T22:17:48.507Z,102257.42
2024-04-30T22:20:16.195Z,102258.85
2024-04-30T22:22:43.614Z,102258.90
2024-04-30T22:25:11.040Z,102255.11
2024-04-30T22:27:38.447Z,102252.54
2024-04-30T22:30:13.468Z,102252.23
2024-04-30T22:32:48.639Z,102252.45
2024-04-30T22:35:16.234Z,102252.80
2024-04-30T22:37:43.576Z,102251.08
2024-04-30T22:40:11.070Z,102247.98
2024-04-30T22:42:39.031Z,102249.41
2024-04-30T22:45:06.586Z,102250.66
2024-04-30T22:47:34.145Z,102248.60
2024-04-30T22:50:01.778Z,102248.46
2024-04-30T22:52:29.239Z,102247.45
2024-04-30T22:54:56.733Z,102247.48
2024-04-30T22:57:24.288Z,102244.20
2024-04-30T22:59:51.799Z,102240.76
2024-04-30T23:02:19.207Z,102239.04
2024-04-30T23:04:46.956Z,102242.98
2024-04-30T23:07:14.458Z,102234.20
2024-04-30T23:09:41.956Z,102232.83
2024-04-30T23:12:09.458Z,102228.67
2024-04-30T23:14:36.850Z,102229.73
2024-04-30T23:17:04.485Z,102227.65
2024-04-30T23:19:31.941Z,102225.93
2024-04-30T23:21:59.588Z,102223.14
2024-04-30T23:24:27.346Z,102213.79
2024-04-30T23:26:54.890Z,102211.20
2024-04-30T23:29:24.001Z,102208.25
2024-04-30T23:31:52.939Z,102207.94
2024-04-30T23:34:20.302Z,102204.65
2024-04-30T23:36:47.771Z,102207.09
2024-04-30T23:39:15.294Z,102205.55
2024-04-30T23:41:42.714Z,102205.05
2024-04-30T23:44:10.108Z,102201.05
2024-04-30T23:46:37.572Z,102200.19
2024-04-30T23:49:05.019Z,102197.58
2024-04-30T23:51:32.498Z,102191.88
2024-04-30T23:53:59.986Z,102194.31
2024-04-30T23:56:27.490Z,102192.76
2024-04-30T23:58:54.891Z,102192.23
